KENW/ENW METAR and TAF weather

Enter ICAO airport designator
Station Type Date Time Source
KENW METAR 2019/06/16 04:53 UTC NOAA

KENW 160453Z AUTO 05005KT 10SM OVC006 12/11 A2980 RMK AO2 SLP089 T01220111


Station Type Date Time Source
KENW Decoded METAR 2019/06/16 04:53 UTC NOAA

KENOSHA REGIONAL AIRPORT, WI, United States (KENW) 42-36N 087-56W 219M
Jun 16, 2019 - 12:53 AM EDT / 2019.06.16 0453 UTC
Wind: from the NE (050 degrees) at 6 MPH (5 KT):0
Visibility: 10 mile(s):0
Sky conditions: overcast
Temperature: 54.0 F (12.2 C)
Dew Point: 52.0 F (11.1 C)
Relative Humidity: 92%
Pressure (altimeter): 29.8 in. Hg (1009 hPa)
ob: KENW 160453Z AUTO 05005KT 10SM OVC006 12/11 A2980 RMK AO2 SLP089 T01220111
cycle: 5

Station Type Date Time Source
KENW TAF 2019/06/16 06:22 UTC NOAA

TAF KENW 160520Z 1606/1706 03006KT P6SM VCSH BKN008 OVC015
TEMPO 1606/1607 5SM -SHRA
FM160800 03006KT P6SM -SHRA BKN008
TEMPO 1608/1611 3SM -SHRA BR
FM161100 03006KT 6SM BR OVC005
FM161400 06007KT P6SM OVC008
FM162000 05008KT P6SM OVC012
FM170500 02005KT P6SM BKN035

Example: see airport list